createdAt,value
2022-07-26T00:00:12.880Z,2.80
2022-07-26T00:02:47.289Z,3.23
2022-07-26T00:05:17.913Z,2.83
2022-07-26T00:07:45.118Z,2.43
2022-07-26T00:10:12.031Z,2.40
2022-07-26T00:12:38.879Z,2.63
2022-07-26T00:15:07.028Z,2.80
2022-07-26T00:17:33.802Z,3.10
2022-07-26T00:20:00.563Z,2.30
2022-07-26T00:22:36.052Z,2.53
2022-07-26T00:25:07.338Z,2.53
2022-07-26T00:27:37.235Z,2.83
2022-07-26T00:30:07.550Z,2.40
2022-07-26T00:32:34.382Z,2.00
2022-07-26T00:35:01.282Z,2.23
2022-07-26T00:37:28.185Z,2.27
2022-07-26T00:39:54.961Z,2.03
2022-07-26T00:42:21.733Z,2.20
2022-07-26T00:44:48.744Z,1.93
2022-07-26T00:47:15.552Z,1.90
2022-07-26T00:49:42.447Z,2.07
2022-07-26T00:52:09.527Z,2.00
2022-07-26T00:54:37.062Z,2.30
2022-07-26T00:57:03.998Z,1.77
2022-07-26T00:59:30.714Z,1.80
2022-07-26T01:01:57.606Z,2.30
2022-07-26T01:04:24.462Z,2.10
2022-07-26T01:06:51.237Z,1.70
2022-07-26T01:09:17.961Z,1.50
2022-07-26T01:11:45.726Z,1.77
2022-07-26T01:14:12.500Z,1.20
2022-07-26T01:16:39.400Z,1.50
2022-07-26T01:19:06.220Z,1.40
2022-07-26T01:21:33.620Z,1.63
2022-07-26T01:24:00.463Z,1.60
2022-07-26T01:26:27.372Z,1.47
2022-07-26T01:28:54.207Z,1.40
2022-07-26T01:31:21.067Z,1.60
2022-07-26T01:33:48.099Z,1.40
2022-07-26T01:36:14.872Z,1.30
2022-07-26T01:38:41.905Z,1.37
2022-07-26T01:41:08.855Z,1.80
2022-07-26T01:43:36.177Z,1.50
2022-07-26T01:46:03.821Z,1.37
2022-07-26T01:48:30.773Z,1.73
2022-07-26T01:50:57.892Z,1.80
2022-07-26T01:53:24.700Z,1.40
2022-07-26T01:55:51.466Z,1.40
2022-07-26T01:58:18.218Z,1.40
2022-07-26T02:00:44.998Z,1.10
2022-07-26T02:03:11.814Z,1.73
2022-07-26T02:05:38.555Z,1.20
2022-07-26T02:08:05.350Z,1.00
2022-07-26T02:10:50.637Z,1.20
2022-07-26T02:13:17.396Z,1.17
2022-07-26T02:15:44.141Z,1.07
2022-07-26T02:18:10.933Z,1.43
2022-07-26T02:20:37.731Z,1.30
2022-07-26T02:23:04.595Z,1.50
2022-07-26T02:25:31.448Z,1.40
2022-07-26T02:27:58.209Z,1.50
2022-07-26T02:30:25.165Z,1.43
2022-07-26T02:32:51.929Z,1.20
2022-07-26T02:35:18.731Z,1.30
2022-07-26T02:37:45.458Z,1.30
2022-07-26T02:40:18.798Z,1.33
2022-07-26T02:42:46.321Z,1.77
2022-07-26T02:45:13.079Z,1.10
2022-07-26T02:47:47.829Z,1.40
2022-07-26T02:50:17.504Z,1.50
2022-07-26T02:52:44.482Z,1.57
2022-07-26T02:55:11.312Z,1.60
2022-07-26T02:57:45.536Z,1.37
2022-07-26T03:00:14.835Z,1.70
2022-07-26T03:02:41.842Z,1.40
2022-07-26T03:05:09.037Z,1.50
2022-07-26T03:07:35.870Z,1.70
2022-07-26T03:10:02.623Z,1.33
2022-07-26T03:12:30.287Z,1.47
2022-07-26T03:14:57.133Z,1.43
2022-07-26T03:17:23.970Z,1.43
2022-07-26T03:19:50.691Z,1.37
2022-07-26T03:22:17.639Z,1.40
2022-07-26T03:24:44.433Z,1.67
2022-07-26T03:27:11.205Z,1.40
2022-07-26T03:29:37.934Z,1.70
2022-07-26T03:32:04.846Z,1.30
2022-07-26T03:34:31.627Z,1.07
2022-07-26T03:36:58.392Z,1.50
2022-07-26T03:39:25.549Z,1.60
2022-07-26T03:41:52.316Z,2.17
2022-07-26T03:44:19.060Z,1.87
2022-07-26T03:46:45.859Z,1.90
2022-07-26T03:49:16.630Z,2.10
2022-07-26T03:51:43.913Z,2.10
2022-07-26T03:54:11.099Z,2.13
2022-07-26T03:56:38.232Z,2.03
2022-07-26T03:59:07.456Z,1.60
2022-07-26T04:01:35.268Z,1.60
2022-07-26T04:04:02.309Z,1.70
2022-07-26T04:06:29.897Z,1.50
2022-07-26T04:08:56.795Z,1.60
2022-07-26T04:11:26.545Z,1.63
2022-07-26T04:13:55.642Z,1.73
2022-07-26T04:16:22.569Z,1.50
2022-07-26T04:18:49.414Z,1.50
2022-07-26T04:21:16.305Z,1.70
2022-07-26T04:23:45.404Z,1.73
2022-07-26T04:26:16.070Z,1.73
2022-07-26T04:28:42.896Z,1.50
2022-07-26T04:31:09.690Z,1.90
2022-07-26T04:33:36.475Z,1.70
2022-07-26T04:36:03.429Z,1.90
2022-07-26T04:38:30.344Z,1.60
2022-07-26T04:40:57.991Z,1.37
2022-07-26T04:43:24.974Z,2.03
2022-07-26T04:45:51.833Z,1.77
2022-07-26T04:48:18.647Z,1.50
2022-07-26T04:50:45.508Z,1.30
2022-07-26T04:53:12.292Z,1.77
2022-07-26T04:55:39.273Z,1.60
2022-07-26T04:58:06.143Z,1.20
2022-07-26T05:00:34.373Z,1.50
2022-07-26T05:03:06.102Z,1.27
2022-07-26T05:05:33.080Z,1.13
2022-07-26T05:08:00.985Z,1.10
2022-07-26T05:10:32.753Z,1.30
2022-07-26T05:12:59.591Z,1.23
2022-07-26T05:15:35.086Z,1.17
2022-07-26T05:18:07.134Z,1.40
2022-07-26T05:20:35.182Z,1.57
2022-07-26T05:23:01.942Z,1.60
2022-07-26T05:25:28.709Z,1.70
2022-07-26T05:27:55.443Z,1.53
2022-07-26T05:30:22.245Z,1.43
2022-07-26T05:32:49.042Z,1.20
2022-07-26T05:35:15.877Z,1.50
2022-07-26T05:37:43.432Z,1.33
2022-07-26T05:40:11.062Z,1.50
2022-07-26T05:42:37.866Z,1.40
2022-07-26T05:45:05.468Z,1.70
2022-07-26T05:47:32.234Z,1.33
2022-07-26T05:49:59.225Z,2.20
2022-07-26T05:52:26.025Z,1.60
2022-07-26T05:54:52.818Z,1.50
2022-07-26T05:57:19.654Z,1.43
2022-07-26T05:59:46.462Z,1.67
2022-07-26T06:02:13.324Z,2.07
2022-07-26T06:04:40.150Z,2.30
2022-07-26T06:07:06.941Z,2.20
2022-07-26T06:09:33.730Z,1.90
2022-07-26T06:12:00.497Z,2.03
2022-07-26T06:14:27.383Z,1.53
2022-07-26T06:16:55.570Z,1.63
2022-07-26T06:19:22.435Z,1.60
2022-07-26T06:21:49.255Z,1.30
2022-07-26T06:24:16.270Z,1.50
2022-07-26T06:26:43.046Z,1.60
2022-07-26T06:29:09.961Z,1.50
2022-07-26T06:31:37.536Z,1.20
2022-07-26T06:34:04.459Z,1.33
2022-07-26T06:36:31.545Z,1.03
2022-07-26T06:38:58.545Z,1.30
2022-07-26T06:41:25.411Z,1.40
2022-07-26T06:43:52.141Z,1.30
2022-07-26T06:46:21.005Z,1.10
2022-07-26T06:48:52.959Z,1.40
2022-07-26T06:51:23.709Z,1.40
2022-07-26T06:53:50.542Z,1.07
2022-07-26T06:56:18.056Z,1.03
2022-07-26T06:58:45.119Z,1.10
2022-07-26T07:01:12.096Z,1.00
2022-07-26T07:03:38.869Z,0.90
2022-07-26T07:06:05.742Z,1.27
2022-07-26T07:08:32.474Z,1.10
2022-07-26T07:10:59.265Z,0.93
2022-07-26T07:13:26.089Z,1.20
2022-07-26T07:15:52.861Z,1.00
2022-07-26T07:18:20.484Z,0.80
2022-07-26T07:20:47.699Z,1.00
2022-07-26T07:23:14.541Z,1.13
2022-07-26T07:25:41.313Z,1.00
2022-07-26T07:28:11.655Z,1.30
2022-07-26T07:30:38.407Z,1.13
2022-07-26T07:33:05.246Z,1.10
2022-07-26T07:35:32.917Z,1.40
2022-07-26T07:37:59.933Z,1.70
2022-07-26T07:40:26.714Z,1.20
2022-07-26T07:42:53.510Z,1.13
2022-07-26T07:45:20.326Z,1.40
2022-07-26T07:47:47.044Z,1.00
2022-07-26T07:50:13.827Z,1.03
2022-07-26T07:52:40.727Z,1.00
2022-07-26T07:55:36.786Z,0.90
2022-07-26T07:57:55.011Z,1.30
2022-07-26T08:00:27.114Z,1.13
2022-07-26T08:02:54.715Z,1.33
2022-07-26T08:05:21.479Z,1.00
2022-07-26T08:07:48.437Z,1.23
2022-07-26T08:10:15.304Z,1.00
2022-07-26T08:12:44.396Z,0.90
2022-07-26T08:15:11.594Z,1.30
2022-07-26T08:17:41.919Z,1.03
2022-07-26T08:20:14.763Z,2.10
2022-07-26T08:22:42.786Z,2.10
2022-07-26T08:25:09.919Z,1.57
2022-07-26T08:27:40.826Z,1.80
2022-07-26T08:30:08.636Z,2.17
2022-07-26T08:32:35.843Z,1.50
2022-07-26T08:35:18.263Z,1.73
2022-07-26T08:37:46.430Z,1.70
2022-07-26T08:40:13.233Z,1.67
2022-07-26T08:42:40.279Z,1.30
2022-07-26T08:45:07.573Z,1.43
2022-07-26T08:47:37.654Z,1.40
2022-07-26T08:50:07.615Z,1.10
2022-07-26T08:52:34.361Z,1.00
2022-07-26T08:55:01.225Z,1.20
2022-07-26T08:57:28.111Z,1.20
2022-07-26T09:00:24.924Z,1.07
2022-07-26T09:02:52.708Z,1.03
2022-07-26T09:05:33.462Z,0.90
2022-07-26T09:08:00.939Z,1.33
2022-07-26T09:10:27.998Z,1.00
2022-07-26T09:12:56.298Z,1.20
2022-07-26T09:15:27.278Z,1.47
2022-07-26T09:17:55.894Z,1.07
2022-07-26T09:20:28.021Z,0.70
2022-07-26T09:23:08.192Z,0.80
2022-07-26T09:25:42.718Z,1.10
2022-07-26T09:28:22.945Z,1.10
2022-07-26T09:30:57.211Z,1.23
2022-07-26T09:33:23.946Z,1.27
2022-07-26T09:36:06.837Z,1.00
2022-07-26T09:38:46.889Z,1.00
2022-07-26T09:41:20.685Z,1.30
2022-07-26T09:43:53.205Z,1.03
2022-07-26T09:46:20.953Z,1.03
2022-07-26T09:51:35.541Z,1.27
2022-07-26T09:54:02.269Z,1.13
2022-07-26T09:56:50.233Z,1.07
2022-07-26T09:59:21.902Z,1.37
2022-07-26T10:01:49.302Z,1.00
2022-07-26T10:04:16.319Z,1.07
2022-07-26T10:06:43.272Z,1.40
2022-07-26T10:09:10.557Z,1.00
2022-07-26T10:11:44.837Z,1.07
2022-07-26T10:14:33.694Z,0.97
2022-07-26T10:17:01.137Z,1.30
2022-07-26T10:19:41.446Z,1.30
2022-07-26T10:22:34.426Z,1.00
2022-07-26T10:25:19.782Z,1.10
2022-07-26T10:27:51.201Z,1.37
2022-07-26T10:30:23.916Z,1.33
2022-07-26T10:32:56.408Z,0.90
2022-07-26T10:35:42.339Z,1.07
2022-07-26T10:38:15.017Z,1.60
2022-07-26T10:41:02.392Z,1.00
2022-07-26T10:43:44.752Z,0.90
2022-07-26T10:46:20.606Z,1.00
2022-07-26T10:49:04.266Z,1.30
2022-07-26T10:51:34.125Z,0.83
2022-07-26T10:54:13.700Z,1.00
2022-07-26T10:56:40.913Z,1.30
2022-07-26T10:59:07.934Z,0.93
2022-07-26T11:01:35.488Z,1.00
2022-07-26T11:04:02.278Z,0.77
2022-07-26T11:06:30.362Z,0.70
2022-07-26T11:08:57.218Z,1.60
2022-07-26T11:11:31.437Z,1.17
2022-07-26T11:14:09.257Z,1.23
2022-07-26T11:16:43.492Z,1.40
2022-07-26T11:19:39.324Z,0.80
2022-07-26T11:22:06.122Z,1.10
2022-07-26T11:24:32.916Z,1.00
2022-07-26T11:27:03.296Z,1.00
2022-07-26T11:29:40.591Z,0.90
2022-07-26T11:32:21.763Z,0.80
2022-07-26T11:35:02.241Z,0.73
2022-07-26T11:37:29.976Z,0.80
2022-07-26T11:39:56.897Z,1.10
2022-07-26T11:42:23.638Z,1.00
2022-07-26T11:44:50.587Z,0.93
2022-07-26T11:47:21.381Z,0.90
2022-07-26T11:50:11.625Z,1.40
2022-07-26T11:52:39.575Z,0.80
2022-07-26T11:55:07.059Z,0.90
2022-07-26T11:57:33.890Z,0.83
2022-07-26T12:00:01.123Z,1.10
2022-07-26T12:02:28.783Z,1.00
2022-07-26T12:05:19.215Z,0.70
2022-07-26T12:08:00.339Z,1.07
2022-07-26T12:10:27.659Z,0.67
2022-07-26T12:13:15.094Z,1.03
2022-07-26T12:15:45.522Z,1.00
2022-07-26T12:18:20.418Z,1.20
2022-07-26T12:21:04.564Z,0.97
2022-07-26T12:23:46.509Z,0.97
2022-07-26T12:26:29.193Z,1.10
2022-07-26T12:28:56.483Z,0.93
2022-07-26T12:31:32.977Z,0.70
2022-07-26T12:34:00.088Z,0.63
2022-07-26T12:36:28.801Z,0.80
2022-07-26T12:39:00.139Z,0.90
2022-07-26T12:41:32.018Z,1.07
2022-07-26T12:43:59.701Z,0.83
2022-07-26T12:46:26.534Z,0.73
2022-07-26T12:48:56.819Z,1.03
2022-07-26T12:51:27.027Z,1.00
2022-07-26T12:53:53.765Z,1.20
2022-07-26T12:56:20.701Z,0.83
2022-07-26T12:58:47.448Z,1.20
2022-07-26T13:01:14.483Z,0.90
2022-07-26T13:03:41.363Z,1.33
2022-07-26T13:06:08.141Z,1.33
2022-07-26T13:08:34.878Z,0.70
2022-07-26T13:11:01.716Z,1.20
2022-07-26T13:13:28.471Z,1.00
2022-07-26T13:15:55.222Z,0.90
2022-07-26T13:18:21.919Z,2.00
2022-07-26T13:20:48.681Z,1.00
2022-07-26T13:23:18.410Z,1.33
2022-07-26T13:25:48.970Z,1.20
2022-07-26T13:28:17.061Z,0.90
2022-07-26T13:30:44.185Z,1.00
2022-07-26T13:33:11.547Z,1.10
2022-07-26T13:35:42.515Z,1.33
2022-07-26T13:38:09.515Z,1.20
2022-07-26T13:40:36.371Z,0.80
2022-07-26T13:43:03.310Z,1.00
2022-07-26T13:45:30.173Z,1.13
2022-07-26T13:47:58.838Z,1.30
2022-07-26T13:50:26.849Z,0.87
2022-07-26T13:52:57.402Z,1.03
2022-07-26T13:55:24.709Z,0.83
2022-07-26T13:57:56.165Z,1.07
2022-07-26T14:00:27.123Z,1.10
2022-07-26T14:02:55.130Z,0.90
2022-07-26T14:05:21.966Z,0.80
2022-07-26T14:07:48.700Z,1.10
2022-07-26T14:10:15.607Z,0.70
2022-07-26T14:12:42.361Z,0.90
2022-07-26T14:15:18.023Z,1.30
2022-07-26T14:17:48.157Z,0.70
2022-07-26T14:20:17.005Z,0.80
2022-07-26T14:22:44.370Z,1.03
2022-07-26T14:25:11.303Z,0.97
2022-07-26T14:27:38.091Z,0.60
2022-07-26T14:30:05.667Z,1.10
2022-07-26T14:32:32.577Z,0.97
2022-07-26T14:34:59.463Z,0.97
2022-07-26T14:37:42.877Z,1.00
2022-07-26T14:40:13.435Z,0.80
2022-07-26T14:42:40.227Z,0.93
2022-07-26T14:45:08.417Z,1.10
2022-07-26T14:47:35.435Z,1.33
2022-07-26T14:50:06.476Z,1.20
2022-07-26T14:52:34.413Z,0.80
2022-07-26T14:55:03.936Z,0.90
2022-07-26T14:57:30.681Z,1.03
2022-07-26T14:59:57.560Z,1.03
2022-07-26T15:02:24.434Z,1.13
2022-07-26T15:04:51.315Z,1.17
2022-07-26T15:07:18.295Z,1.43
2022-07-26T15:09:45.080Z,1.00
2022-07-26T15:12:11.811Z,0.90
2022-07-26T15:14:38.542Z,1.10
2022-07-26T15:17:05.318Z,1.00
2022-07-26T15:19:32.077Z,1.00
2022-07-26T15:22:02.124Z,0.83
2022-07-26T15:24:29.077Z,0.80
2022-07-26T15:26:55.818Z,1.10
2022-07-26T15:29:22.708Z,0.80
2022-07-26T15:31:50.513Z,0.97
2022-07-26T15:34:17.343Z,0.60
2022-07-26T15:36:44.425Z,0.50
2022-07-26T15:39:18.583Z,0.87
2022-07-26T15:41:46.479Z,0.50
2022-07-26T15:44:13.437Z,0.50
2022-07-26T15:46:41.792Z,0.70
2022-07-26T15:49:10.485Z,0.40
2022-07-26T15:51:37.651Z,0.70
2022-07-26T15:54:05.207Z,0.30
2022-07-26T15:56:31.969Z,0.67
2022-07-26T15:58:58.706Z,0.33
2022-07-26T16:01:28.761Z,0.70
2022-07-26T16:03:55.509Z,0.60
2022-07-26T16:06:22.565Z,0.50
2022-07-26T16:09:18.116Z,0.67
2022-07-26T16:11:46.820Z,0.50
2022-07-26T16:14:13.993Z,0.90
2022-07-26T16:16:41.266Z,0.60
2022-07-26T16:19:08.715Z,0.53
2022-07-26T16:21:37.169Z,0.70
2022-07-26T16:24:07.166Z,0.40
2022-07-26T16:26:34.740Z,0.60
2022-07-26T16:29:01.504Z,0.60
2022-07-26T16:31:28.558Z,0.53
2022-07-26T16:33:55.397Z,0.40
2022-07-26T16:36:22.247Z,0.67
2022-07-26T16:38:51.550Z,0.70
2022-07-26T16:41:18.686Z,0.80
2022-07-26T16:43:45.692Z,0.90
2022-07-26T16:46:12.498Z,1.13
2022-07-26T16:48:39.398Z,1.27
2022-07-26T16:51:06.213Z,0.90
2022-07-26T16:53:32.944Z,1.07
2022-07-26T16:55:59.705Z,0.80
2022-07-26T16:58:26.451Z,0.70
2022-07-26T17:00:53.443Z,0.60
2022-07-26T17:03:20.403Z,1.13
2022-07-26T17:05:47.286Z,0.60
2022-07-26T17:08:14.044Z,0.90
2022-07-26T17:10:40.823Z,1.10
2022-07-26T17:13:07.591Z,1.10
2022-07-26T17:15:34.370Z,1.27
2022-07-26T17:18:01.149Z,1.20
2022-07-26T17:20:27.945Z,0.97
2022-07-26T17:22:54.925Z,1.20
2022-07-26T17:25:21.823Z,0.90
2022-07-26T17:27:48.619Z,1.13
2022-07-26T17:30:15.558Z,1.40
2022-07-26T17:32:45.000Z,1.37
2022-07-26T17:35:11.785Z,1.30
2022-07-26T17:37:38.616Z,0.90
2022-07-26T17:40:08.260Z,1.50
2022-07-26T17:42:36.323Z,1.60
2022-07-26T17:45:03.780Z,1.50
2022-07-26T17:47:30.904Z,1.43
2022-07-26T17:50:19.533Z,1.43
2022-07-26T17:52:49.076Z,1.37
2022-07-26T17:55:15.936Z,1.43
2022-07-26T17:57:42.694Z,1.30
2022-07-26T18:00:10.012Z,1.30
2022-07-26T18:02:37.163Z,1.20
2022-07-26T18:05:04.093Z,1.40
2022-07-26T18:07:30.977Z,1.03
2022-07-26T18:09:57.736Z,1.03
2022-07-26T18:12:24.492Z,1.20
2022-07-26T18:14:51.318Z,1.07
2022-07-26T18:17:18.091Z,1.33
2022-07-26T18:19:45.250Z,1.77
2022-07-26T18:22:12.105Z,1.60
2022-07-26T18:24:38.865Z,1.40
2022-07-26T18:27:06.148Z,1.27
2022-07-26T18:29:33.184Z,1.57
2022-07-26T18:32:01.787Z,0.97
2022-07-26T18:34:28.605Z,0.80
2022-07-26T18:36:55.390Z,0.80
2022-07-26T18:39:22.398Z,0.80
2022-07-26T18:41:49.204Z,1.10
2022-07-26T18:44:16.062Z,1.10
2022-07-26T18:46:42.939Z,1.10
2022-07-26T18:49:19.793Z,1.33
2022-07-26T18:51:48.838Z,1.50
2022-07-26T18:54:16.606Z,1.43
2022-07-26T18:56:43.555Z,1.10
2022-07-26T18:59:10.628Z,1.30
2022-07-26T19:01:37.797Z,1.10
2022-07-26T19:04:07.283Z,1.30
2022-07-26T19:06:35.022Z,1.00
2022-07-26T19:09:01.877Z,0.93
2022-07-26T19:11:30.191Z,1.00
2022-07-26T19:13:57.163Z,0.83
2022-07-26T19:16:26.163Z,1.33
2022-07-26T19:18:57.367Z,1.10
2022-07-26T19:21:24.495Z,1.30
2022-07-26T19:23:51.296Z,1.03
2022-07-26T19:26:18.043Z,1.30
2022-07-26T19:28:44.809Z,1.40
2022-07-26T19:31:11.590Z,1.27
2022-07-26T19:33:38.410Z,0.93
2022-07-26T19:36:05.411Z,1.03
2022-07-26T19:38:33.108Z,1.53
2022-07-26T19:41:00.319Z,1.60
2022-07-26T19:43:27.570Z,1.50
2022-07-26T19:45:54.418Z,1.27
2022-07-26T19:48:21.269Z,1.10
2022-07-26T19:50:48.026Z,0.83
2022-07-26T19:53:14.826Z,1.00
2022-07-26T19:55:42.462Z,0.60
2022-07-26T19:58:09.296Z,0.80
2022-07-26T20:00:36.088Z,1.10
2022-07-26T20:03:02.931Z,0.90
2022-07-26T20:05:29.769Z,0.60
2022-07-26T20:07:56.549Z,1.03
2022-07-26T20:10:26.239Z,0.70
2022-07-26T20:12:55.403Z,0.80
2022-07-26T20:15:22.591Z,0.50
2022-07-26T20:17:49.425Z,0.77
2022-07-26T20:20:17.895Z,0.80
2022-07-26T20:22:44.635Z,0.70
2022-07-26T20:25:11.587Z,0.63
2022-07-26T20:27:38.422Z,0.70
2022-07-26T20:30:06.116Z,1.07
2022-07-26T20:32:32.924Z,1.10
2022-07-26T20:34:59.680Z,1.13
2022-07-26T20:37:26.470Z,0.97
2022-07-26T20:39:53.405Z,1.07
2022-07-26T20:42:22.157Z,0.70
2022-07-26T20:44:49.422Z,0.80
2022-07-26T20:47:16.164Z,0.60
2022-07-26T20:49:43.189Z,0.67
2022-07-26T20:52:10.133Z,0.93
2022-07-26T20:54:37.229Z,0.83
2022-07-26T20:57:04.635Z,0.90
2022-07-26T20:59:32.380Z,0.80
2022-07-26T21:01:59.359Z,0.83
2022-07-26T21:04:26.283Z,0.60
2022-07-26T21:06:53.094Z,1.00
2022-07-26T21:09:19.929Z,0.60
2022-07-26T21:11:46.857Z,0.70
2022-07-26T21:14:13.677Z,0.77
2022-07-26T21:16:40.508Z,0.80
2022-07-26T21:19:07.470Z,0.70
2022-07-26T21:21:34.724Z,0.50
2022-07-26T21:24:01.485Z,0.83
2022-07-26T21:26:28.266Z,0.63
2022-07-26T21:28:55.041Z,0.70
2022-07-26T21:31:21.942Z,0.90
2022-07-26T21:33:48.938Z,0.60
2022-07-26T21:36:15.661Z,0.60
2022-07-26T21:38:42.679Z,0.83
2022-07-26T21:41:09.445Z,0.90
2022-07-26T21:43:40.179Z,0.90
2022-07-26T21:46:12.149Z,0.70
2022-07-26T21:48:39.969Z,0.83
2022-07-26T21:51:06.708Z,0.87
2022-07-26T21:53:33.461Z,0.80
2022-07-26T21:56:00.182Z,0.80
2022-07-26T21:58:28.127Z,0.97
2022-07-26T22:01:06.475Z,1.00
2022-07-26T22:03:34.956Z,0.77
2022-07-26T22:06:02.055Z,0.80
2022-07-26T22:08:28.821Z,0.90
2022-07-26T22:10:55.845Z,1.10
2022-07-26T22:13:22.597Z,0.90
2022-07-26T22:15:49.585Z,1.30
2022-07-26T22:18:16.486Z,1.07
2022-07-26T22:20:44.067Z,1.00
2022-07-26T22:23:11.895Z,1.10
2022-07-26T22:25:38.817Z,0.80
2022-07-26T22:28:06.651Z,0.90
2022-07-26T22:30:33.578Z,1.10
2022-07-26T22:33:01.168Z,1.10
2022-07-26T22:35:34.947Z,1.00
2022-07-26T22:38:12.563Z,0.67
2022-07-26T22:40:40.169Z,0.77
2022-07-26T22:43:07.286Z,1.00
2022-07-26T22:45:34.387Z,0.63
2022-07-26T22:48:04.806Z,0.80
2022-07-26T22:50:31.968Z,0.70
2022-07-26T22:53:00.883Z,0.73
2022-07-26T22:55:28.074Z,0.57
2022-07-26T22:57:54.902Z,0.80
2022-07-26T23:00:21.703Z,0.83
2022-07-26T23:02:49.021Z,0.90
2022-07-26T23:05:15.929Z,0.90
2022-07-26T23:07:43.569Z,0.70
2022-07-26T23:10:14.962Z,1.00
2022-07-26T23:12:42.312Z,0.97
2022-07-26T23:15:09.871Z,0.60
2022-07-26T23:17:37.635Z,1.00
2022-07-26T23:20:05.932Z,1.00
2022-07-26T23:22:32.689Z,0.87
2022-07-26T23:24:59.447Z,0.80
2022-07-26T23:27:26.178Z,0.73
2022-07-26T23:29:52.925Z,0.80
2022-07-26T23:32:19.691Z,0.70
2022-07-26T23:34:46.585Z,0.80
2022-07-26T23:37:13.342Z,0.70
2022-07-26T23:39:40.135Z,1.00
2022-07-26T23:42:07.302Z,0.60
2022-07-26T23:44:34.169Z,0.80
2022-07-26T23:47:00.973Z,1.00
2022-07-26T23:49:28.019Z,0.67
2022-07-26T23:51:54.838Z,0.90
2022-07-26T23:54:21.622Z,0.97
2022-07-26T23:56:48.419Z,0.80
2022-07-26T23:59:15.605Z,1.07
